Time;durP1;ratioP1;P1;durP2;ratioP2;P2;SDS_P1;SDS_P2;PMS_P1;PMS_P2;Temp;Humidity;BMP_temperature;BMP_pressure;BME280_temperature;BME280_humidity;BME280_pressure;Samples;Min_cycle;Max_cycle;Signal;HPM_P1;HPM_P2
2023/12/29 00:01:43;;;;;;;8.65;1.92;;;10.10;99.90;;;;;;4971620;28;20330;-68
2023/12/29 00:04:10;;;;;;;8.27;2.10;;;10.20;99.90;;;;;;4969452;28;20195;-68
2023/12/29 00:06:39;;;;;;;11.55;1.80;;;10.20;99.90;;;;;;4979384;28;20290;-68
2023/12/29 00:09:06;;;;;;;6.60;1.67;;;10.20;99.90;;;;;;4982008;28;20319;-68
2023/12/29 00:11:33;;;;;;;3.08;1.45;;;10.20;99.90;;;;;;4977323;28;20305;-68
2023/12/29 00:14:00;;;;;;;7.82;1.58;;;10.20;99.90;;;;;;4940590;28;20810;-68
2023/12/29 00:16:29;;;;;;;4.60;1.60;;;10.20;99.90;;;;;;4979057;28;20786;-68
2023/12/29 00:18:56;;;;;;;5.65;1.58;;;10.20;99.90;;;;;;4966537;28;20393;-68
2023/12/29 00:21:23;;;;;;;6.93;2.08;;;10.30;99.90;;;;;;4980323;28;20203;-69
2023/12/29 00:23:50;;;;;;;2.95;1.20;;;10.20;99.90;;;;;;4970572;28;20213;-68
2023/12/29 00:26:18;;;;;;;3.45;1.63;;;10.20;99.90;;;;;;4977051;28;20226;-69
2023/12/29 00:28:45;;;;;;;4.60;1.95;;;10.20;99.90;;;;;;4945950;28;20230;-68
2023/12/29 00:31:15;;;;;;;5.90;1.90;;;10.20;99.90;;;;;;4982115;28;21002;-68
2023/12/29 00:33:43;;;;;;;7.60;1.88;;;10.30;99.90;;;;;;4972272;28;20235;-68
2023/12/29 00:36:15;;;;;;;3.58;1.80;;;10.40;99.90;;;;;;4968840;28;20231;-68
2023/12/29 00:38:43;;;;;;;5.68;1.98;;;;;;;;;;4971779;28;20229;-68
2023/12/29 00:41:10;;;;;;;6.75;1.85;;;10.20;99.90;;;;;;4983448;28;20199;-68
2023/12/29 00:43:37;;;;;;;5.70;1.60;;;10.10;99.90;;;;;;4942783;28;20211;-68
2023/12/29 00:46:04;;;;;;;5.55;1.50;;;10.10;99.90;;;;;;4978588;28;20195;-68
2023/12/29 00:48:31;;;;;;;6.28;1.27;;;10.20;99.90;;;;;;4976332;28;20202;-68
2023/12/29 00:51:01;;;;;;;7.55;2.33;;;10.20;99.90;;;;;;4969867;28;20554;-68
2023/12/29 00:53:29;;;;;;;6.15;1.67;;;10.20;99.90;;;;;;4980652;28;20210;-68
2023/12/29 00:55:55;;;;;;;2.75;1.30;;;10.20;99.90;;;;;;4957596;28;20452;-68
2023/12/29 00:58:22;;;;;;;7.13;2.25;;;10.70;99.90;;;;;;4979977;28;20199;-68
2023/12/29 01:00:49;;;;;;;2.83;1.40;;;10.20;99.90;;;;;;4923383;28;20553;-68
2023/12/29 01:03:16;;;;;;;4.22;1.35;;;10.20;99.90;;;;;;4980302;28;20614;-68
2023/12/29 01:05:43;;;;;;;6.20;2.72;;;10.10;99.90;;;;;;4976687;28;20204;-68
2023/12/29 01:08:11;;;;;;;6.35;1.98;;;10.80;99.90;;;;;;4978713;28;20298;-68
2023/12/29 01:10:38;;;;;;;10.25;1.55;;;10.20;99.90;;;;;;4955216;28;20232;-68
2023/12/29 01:13:05;;;;;;;2.42;1.65;;;10.20;99.90;;;;;;4980594;28;20266;-69
2023/12/29 01:15:32;;;;;;;2.97;1.50;;;10.20;99.90;;;;;;4929295;28;20265;-68
2023/12/29 01:17:59;;;;;;;4.03;1.50;;;10.00;99.90;;;;;;4963868;28;20199;-68
2023/12/29 01:20:26;;;;;;;4.35;1.98;;;10.20;99.90;;;;;;4979059;28;20199;-68
2023/12/29 01:22:53;;;;;;;3.88;1.10;;;10.20;99.90;;;;;;4977292;28;20360;-68
2023/12/29 01:25:21;;;;;;;7.53;1.55;;;10.20;99.90;;;;;;4977217;28;20306;-68
2023/12/29 01:27:48;;;;;;;6.68;1.17;;;10.10;99.90;;;;;;4961339;28;20203;-68
2023/12/29 01:30:15;;;;;;;6.15;1.52;;;10.10;99.90;;;;;;4939945;28;20207;-68
2023/12/29 01:32:42;;;;;;;6.45;1.33;;;10.10;99.90;;;;;;4967887;28;20206;-68
2023/12/29 01:35:09;;;;;;;2.70;1.33;;;10.00;99.90;;;;;;4975390;28;20428;-68
2023/12/29 01:37:36;;;;;;;7.93;1.80;;;10.00;99.90;;;;;;4983375;28;20229;-68
2023/12/29 01:40:03;;;;;;;5.13;1.10;;;10.40;99.90;;;;;;4978997;28;20313;-69
2023/12/29 01:42:31;;;;;;;3.28;1.42;;;10.10;99.90;;;;;;4975525;28;20629;-68
2023/12/29 01:44:58;;;;;;;2.88;1.38;;;10.00;99.90;;;;;;4943415;28;22757;-68
2023/12/29 01:47:25;;;;;;;5.03;1.20;;;10.00;99.90;;;;;;4984855;28;20198;-68
2023/12/29 01:49:52;;;;;;;4.15;1.42;;;10.10;99.90;;;;;;4965195;28;20210;-68
2023/12/29 01:52:20;;;;;;;3.58;1.55;;;10.10;99.90;;;;;;4979794;28;20226;-68
2023/12/29 01:54:50;;;;;;;3.83;1.30;;;10.00;99.90;;;;;;4971649;28;20957;-68
2023/12/29 01:57:17;;;;;;;6.35;1.52;;;10.10;99.90;;;;;;4975843;28;20238;-68
2023/12/29 01:59:47;;;;;;;8.55;2.03;;;8.90;99.90;;;;;;4944335;28;20213;-69
2023/12/29 02:02:15;;;;;;;5.82;1.30;;;10.00;99.90;;;;;;4974850;28;20678;-68
2023/12/29 02:04:43;;;;;;;7.88;1.60;;;10.00;99.90;;;;;;4981272;28;20206;-69
2023/12/29 02:07:10;;;;;;;3.53;1.15;;;10.00;99.90;;;;;;4970211;28;20258;-68
2023/12/29 02:09:37;;;;;;;5.95;1.38;;;10.00;99.90;;;;;;4982207;28;21159;-68
2023/12/29 02:12:05;;;;;;;5.47;1.10;;;9.90;99.90;;;;;;4969741;28;20676;-68
2023/12/29 02:14:32;;;;;;;1.95;0.98;;;9.90;99.90;;;;;;4973273;28;20207;-68
2023/12/29 02:17:08;;;;;;;3.78;1.27;;;9.90;99.90;;;;;;4946400;28;20227;-68
2023/12/29 02:19:39;;;;;;;3.72;1.00;;;10.00;99.90;;;;;;4981440;28;20200;-68
2023/12/29 02:22:07;;;;;;;2.75;1.20;;;9.90;99.90;;;;;;4966633;28;20229;-68
2023/12/29 02:24:35;;;;;;;7.88;1.25;;;9.90;99.90;;;;;;4980185;28;20195;-68
2023/12/29 02:27:14;;;;;;;3.50;1.15;;;9.90;99.90;;;;;;4964647;28;20203;-68
2023/12/29 02:29:45;;;;;;;8.63;1.00;;;9.90;99.90;;;;;;4967607;28;20209;-68
2023/12/29 02:32:16;;;;;;;5.30;1.45;;;9.90;99.90;;;;;;4941172;28;20207;-68
2023/12/29 02:34:45;;;;;;;3.78;1.05;;;9.80;99.90;;;;;;4975771;28;20321;-68
2023/12/29 02:37:13;;;;;;;2.20;1.20;;;9.80;99.90;;;;;;4969998;28;20226;-69
2023/12/29 02:39:40;;;;;;;4.03;1.75;;;9.70;99.90;;;;;;4978167;28;20325;-68
2023/12/29 02:42:08;;;;;;;6.30;1.42;;;9.70;99.90;;;;;;4971062;28;20218;-68
2023/12/29 02:44:35;;;;;;;3.30;1.30;;;9.70;99.90;;;;;;4968262;28;20954;-68
2023/12/29 02:47:03;;;;;;;5.28;1.73;;;9.70;99.90;;;;;;4938968;28;21014;-68
2023/12/29 02:49:30;;;;;;;8.13;1.40;;;9.50;99.90;;;;;;4979833;28;20215;-68
2023/12/29 02:51:57;;;;;;;4.80;2.00;;;9.70;99.90;;;;;;4976487;28;20195;-68
2023/12/29 02:54:24;;;;;;;2.88;1.30;;;9.70;99.90;;;;;;4965359;28;20202;-68
2023/12/29 02:56:51;;;;;;;3.28;1.75;;;9.70;99.90;;;;;;4974641;28;20237;-68
2023/12/29 02:59:19;;;;;;;4.40;1.35;;;9.60;99.90;;;;;;4965649;28;20203;-68
2023/12/29 03:01:46;;;;;;;2.60;1.20;;;9.60;99.90;;;;;;4931659;28;20219;-68
2023/12/29 03:04:13;;;;;;;4.07;1.35;;;9.50;99.90;;;;;;4976228;28;20216;-68
2023/12/29 03:06:41;;;;;;;2.78;1.20;;;9.60;99.90;;;;;;4974796;28;20680;-68
2023/12/29 03:09:08;;;;;;;7.45;1.65;;;9.30;99.90;;;;;;4975179;28;20212;-69
2023/12/29 03:11:35;;;;;;;3.10;1.42;;;9.30;99.90;;;;;;4978491;28;20204;-68
2023/12/29 03:14:02;;;;;;;5.38;1.15;;;8.70;99.90;;;;;;4960355;28;20207;-69
2023/12/29 03:16:30;;;;;;;3.35;1.10;;;8.60;99.90;;;;;;4926605;28;20484;-69
2023/12/29 03:18:57;;;;;;;2.80;1.10;;;8.60;99.90;;;;;;4969481;28;20230;-68
2023/12/29 03:21:24;;;;;;;9.95;1.17;;;8.40;99.90;;;;;;4976987;28;20272;-68
2023/12/29 03:23:51;;;;;;;2.25;0.73;;;8.40;99.90;;;;;;4970409;28;20310;-69
2023/12/29 03:26:18;;;;;;;1.33;0.63;;;8.30;99.90;;;;;;4968833;28;20551;-69
2023/12/29 03:28:45;;;;;;;1.13;0.80;;;8.40;99.90;;;;;;4977722;28;20195;-69
2023/12/29 03:31:12;;;;;;;2.23;0.67;;;8.30;99.90;;;;;;4929010;28;20741;-69
2023/12/29 03:33:40;;;;;;;3.00;0.77;;;8.20;99.90;;;;;;4978987;28;20330;-69
2023/12/29 03:36:09;;;;;;;0.63;0.60;;;8.20;99.90;;;;;;4976996;28;21148;-70
2023/12/29 03:38:36;;;;;;;1.33;0.50;;;8.20;99.90;;;;;;4975771;28;20672;-69
2023/12/29 03:41:03;;;;;;;3.57;0.90;;;8.10;99.90;;;;;;4969246;28;20206;-69
2023/12/29 03:43:30;;;;;;;2.20;0.47;;;8.10;99.90;;;;;;4974579;28;20755;-69
2023/12/29 03:45:57;;;;;;;3.40;0.83;;;8.10;99.90;;;;;;4976204;28;20298;-69
2023/12/29 03:48:24;;;;;;;5.17;0.73;;;8.10;99.90;;;;;;4939652;28;20211;-69
2023/12/29 03:50:52;;;;;;;1.37;0.67;;;8.00;99.90;;;;;;4962740;28;20207;-70
2023/12/29 03:53:19;;;;;;;4.97;1.13;;;8.00;99.90;;;;;;4954433;28;20223;-69
2023/12/29 03:55:46;;;;;;;2.00;0.70;;;8.00;99.90;;;;;;4964404;28;20206;-69
2023/12/29 03:58:12;;;;;;;5.53;0.70;;;7.90;99.90;;;;;;4967848;28;20226;-69
2023/12/29 04:00:41;;;;;;;1.10;0.50;;;7.90;99.90;;;;;;4977288;28;20195;-69
2023/12/29 04:03:09;;;;;;;6.50;1.50;;;;;;;;;;4941592;28;20194;-70
2023/12/29 04:05:35;;;;;;;3.63;0.80;;;7.90;99.90;;;;;;4968428;28;20245;-69
2023/12/29 04:08:04;;;;;;;5.33;1.53;;;7.80;99.90;;;;;;4961479;28;20231;-69
2023/12/29 04:10:31;;;;;;;6.30;1.10;;;8.00;99.90;;;;;;4973280;28;20803;-69
2023/12/29 04:12:58;;;;;;;3.50;1.08;;;8.00;99.90;;;;;;4970092;28;20207;-69
2023/12/29 04:15:25;;;;;;;3.70;1.10;;;8.20;99.90;;;;;;4971264;28;20207;-69
2023/12/29 04:17:52;;;;;;;3.00;1.20;;;8.10;99.90;;;;;;4980984;28;20225;-69
2023/12/29 04:20:19;;;;;;;5.93;1.43;;;8.00;99.90;;;;;;4937346;28;20308;-69
2023/12/29 04:22:46;;;;;;;7.38;1.15;;;8.10;99.90;;;;;;4971431;28;20203;-69
2023/12/29 04:25:14;;;;;;;5.60;1.10;;;8.00;99.90;;;;;;4976831;28;20586;-69
2023/12/29 04:27:42;;;;;;;4.63;0.90;;;8.10;99.90;;;;;;4978650;28;20286;-69
2023/12/29 04:30:09;;;;;;;1.80;1.00;;;7.10;99.90;;;;;;4942271;28;20352;-69
2023/12/29 04:32:36;;;;;;;5.93;0.98;;;8.00;99.90;;;;;;4966778;28;20206;-69
2023/12/29 04:35:04;;;;;;;6.53;1.20;;;8.00;99.90;;;;;;4950046;28;20231;-70
2023/12/29 04:37:30;;;;;;;4.93;1.35;;;8.00;99.90;;;;;;4953353;28;20316;-69
2023/12/29 04:39:57;;;;;;;2.60;1.08;;;8.00;99.90;;;;;;4968334;28;20198;-69
2023/12/29 04:42:26;;;;;;;6.18;1.20;;;8.00;99.90;;;;;;4973474;28;20282;-69
2023/12/29 04:44:52;;;;;;;3.17;0.90;;;9.20;99.90;;;;;;4980470;28;20210;-69
2023/12/29 04:47:19;;;;;;;4.37;0.97;;;8.10;99.90;;;;;;4976890;28;20206;-69
2023/12/29 04:49:46;;;;;;;6.33;1.30;;;8.10;99.90;;;;;;4981325;28;20295;-69
2023/12/29 04:52:13;;;;;;;3.90;1.30;;;8.20;99.90;;;;;;4941571;28;20202;-69
2023/12/29 04:54:40;;;;;;;3.40;1.20;;;8.30;99.90;;;;;;4979687;28;20298;-69
2023/12/29 04:57:07;;;;;;;4.80;1.17;;;8.40;99.90;;;;;;4979045;28;20226;-69
2023/12/29 04:59:35;;;;;;;8.33;1.27;;;8.40;99.90;;;;;;4977626;28;20404;-70
2023/12/29 05:02:02;;;;;;;2.78;1.23;;;8.30;99.90;;;;;;4967946;28;20210;-69
2023/12/29 05:04:29;;;;;;;4.65;1.15;;;8.40;99.90;;;;;;4981229;28;20661;-70
2023/12/29 05:06:55;;;;;;;3.22;0.90;;;8.50;99.90;;;;;;4939734;28;20237;-70
2023/12/29 05:09:22;;;;;;;6.85;1.10;;;8.50;99.90;;;;;;4979210;28;20752;-70
2023/12/29 05:11:50;;;;;;;7.50;1.70;;;8.50;99.90;;;;;;4980849;28;20199;-69
2023/12/29 05:14:16;;;;;;;4.85;1.48;;;8.60;99.90;;;;;;4981947;28;20203;-69
2023/12/29 05:16:45;;;;;;;5.15;1.30;;;8.60;99.90;;;;;;4983190;28;20313;-70
2023/12/29 05:19:12;;;;;;;6.88;1.70;;;8.60;99.90;;;;;;4983452;28;20231;-69
2023/12/29 05:21:39;;;;;;;9.70;2.03;;;7.80;99.90;;;;;;4948898;28;20217;-69
2023/12/29 05:24:06;;;;;;;8.32;1.63;;;8.80;99.90;;;;;;4985652;28;20309;-69
2023/12/29 05:26:33;;;;;;;4.07;1.52;;;8.90;99.90;;;;;;4977389;28;20201;-69
2023/12/29 05:29:00;;;;;;;7.20;1.65;;;8.90;99.90;;;;;;4983752;28;20302;-70
2023/12/29 05:31:27;;;;;;;9.02;1.52;;;8.90;99.90;;;;;;4980745;28;20195;-69
2023/12/29 05:33:55;;;;;;;2.20;1.20;;;8.90;99.90;;;;;;4982579;28;20230;-69
2023/12/29 05:36:22;;;;;;;8.75;1.65;;;8.90;99.90;;;;;;4979256;28;20391;-70
2023/12/29 05:38:49;;;;;;;8.23;1.70;;;8.90;99.90;;;;;;4933346;28;20220;-69
2023/12/29 05:41:16;;;;;;;8.45;1.90;;;8.80;99.90;;;;;;4982146;28;20741;-69
2023/12/29 05:43:43;;;;;;;9.13;1.70;;;8.90;99.90;;;;;;4977266;28;20319;-70
2023/12/29 05:46:11;;;;;;;8.45;2.30;;;8.90;99.90;;;;;;4977535;28;20516;-70
2023/12/29 05:48:38;;;;;;;5.05;1.70;;;9.00;99.90;;;;;;4983633;28;20805;-69
2023/12/29 05:51:09;;;;;;;7.07;1.90;;;8.90;99.90;;;;;;4983264;28;21100;-69
2023/12/29 05:53:36;;;;;;;9.35;2.28;;;9.00;99.90;;;;;;4945855;28;20214;-69
2023/12/29 05:56:03;;;;;;;9.40;2.10;;;9.10;99.90;;;;;;4974115;28;20853;-69
2023/12/29 05:58:30;;;;;;;14.35;2.55;;;9.00;99.90;;;;;;4980884;28;20321;-70
2023/12/29 06:00:57;;;;;;;7.63;2.20;;;9.10;99.90;;;;;;4965256;28;20587;-69
2023/12/29 06:03:24;;;;;;;9.82;2.10;;;9.10;99.90;;;;;;4981711;28;20203;-70
2023/12/29 06:05:51;;;;;;;5.82;1.90;;;9.10;99.90;;;;;;4975489;28;20314;-69
2023/12/29 06:08:19;;;;;;;9.25;1.70;;;9.10;99.90;;;;;;4948789;28;20205;-70
2023/12/29 06:10:46;;;;;;;9.70;1.95;;;9.20;99.90;;;;;;4979725;28;20294;-69
2023/12/29 06:13:14;;;;;;;14.60;2.35;;;9.20;99.90;;;;;;4982512;28;20365;-69
2023/12/29 06:15:41;;;;;;;11.85;2.47;;;9.20;99.90;;;;;;4986236;28;20195;-69
2023/12/29 06:18:08;;;;;;;9.27;1.83;;;9.20;99.90;;;;;;4982093;28;20482;-69
2023/12/29 06:20:35;;;;;;;4.22;1.65;;;9.20;99.90;;;;;;4984123;28;20331;-69
2023/12/29 06:23:02;;;;;;;11.02;2.45;;;9.20;99.90;;;;;;4980725;28;20310;-70
2023/12/29 06:25:31;;;;;;;11.57;2.25;;;9.20;99.90;;;;;;4935156;28;20207;-69
2023/12/29 06:27:57;;;;;;;12.38;1.77;;;9.20;99.90;;;;;;4980967;28;20316;-70
2023/12/29 06:30:24;;;;;;;7.68;1.92;;;9.30;99.90;;;;;;4969068;28;20294;-70
2023/12/29 06:32:52;;;;;;;10.88;2.53;;;9.30;99.90;;;;;;4967836;28;20282;-70
2023/12/29 06:35:19;;;;;;;15.50;2.80;;;9.30;99.90;;;;;;4980149;28;20201;-70
2023/12/29 06:37:46;;;;;;;11.82;1.77;;;8.90;99.90;;;;;;4977579;28;20315;-69
2023/12/29 06:40:13;;;;;;;11.35;1.83;;;9.30;99.90;;;;;;4944712;28;20708;-69
2023/12/29 06:42:42;;;;;;;11.68;2.03;;;9.30;99.90;;;;;;4986072;28;20302;-69
2023/12/29 06:45:09;;;;;;;13.57;2.47;;;9.30;99.90;;;;;;4976251;28;21899;-69
2023/12/29 06:47:36;;;;;;;14.65;2.22;;;9.30;99.90;;;;;;4972568;28;20877;-69
2023/12/29 06:50:04;;;;;;;20.10;2.70;;;9.30;99.90;;;;;;4970350;28;20402;-69
2023/12/29 06:52:33;;;;;;;9.15;2.20;;;10.40;99.90;;;;;;4981869;28;20619;-70
2023/12/29 06:55:00;;;;;;;10.70;2.00;;;9.30;99.90;;;;;;4938675;28;20219;-70
2023/12/29 06:57:28;;;;;;;9.95;1.90;;;9.40;99.90;;;;;;4980616;28;20250;-69
2023/12/29 06:59:56;;;;;;;5.63;1.85;;;9.30;99.90;;;;;;4971131;28;20206;-70
2023/12/29 07:02:23;;;;;;;8.30;2.33;;;9.30;99.90;;;;;;4971477;28;21290;-70
2023/12/29 07:04:50;;;;;;;7.88;2.35;;;9.30;99.90;;;;;;4979323;28;20285;-69
2023/12/29 07:07:17;;;;;;;7.30;2.42;;;9.30;99.90;;;;;;4981000;28;20940;-69
2023/12/29 07:09:44;;;;;;;8.43;2.00;;;9.30;99.90;;;;;;4937362;28;20927;-69
2023/12/29 07:12:11;;;;;;;9.80;1.70;;;9.30;99.90;;;;;;4977831;28;20230;-69
2023/12/29 07:14:38;;;;;;;12.07;1.92;;;9.30;99.90;;;;;;4982580;28;20334;-69
2023/12/29 07:17:06;;;;;;;6.75;1.45;;;9.30;99.90;;;;;;4963844;28;20954;-69
2023/12/29 07:19:36;;;;;;;10.88;2.78;;;9.30;99.90;;;;;;4976287;28;21108;-69
2023/12/29 07:22:04;;;;;;;10.00;2.47;;;9.30;99.90;;;;;;4980674;28;20316;-69
2023/12/29 07:24:32;;;;;;;8.93;1.90;;;9.30;99.90;;;;;;4946072;28;20310;-70
2023/12/29 07:26:59;;;;;;;7.10;1.73;;;9.20;99.90;;;;;;4966566;28;20289;-70
2023/12/29 07:29:25;;;;;;;6.82;1.70;;;9.30;99.90;;;;;;4971904;28;20322;-69
2023/12/29 07:31:52;;;;;;;14.88;2.03;;;9.30;99.90;;;;;;4957021;28;20215;-70
2023/12/29 07:34:21;;;;;;;6.88;1.65;;;9.30;99.90;;;;;;4969979;28;20697;-69
2023/12/29 07:36:48;;;;;;;9.73;1.95;;;9.20;99.90;;;;;;4975027;28;20226;-69
2023/12/29 07:39:15;;;;;;;9.52;1.75;;;9.20;99.90;;;;;;4975329;28;20224;-69
2023/12/29 07:41:42;;;;;;;5.38;1.52;;;9.20;99.90;;;;;;4937673;28;20260;-69
2023/12/29 07:44:10;;;;;;;6.05;2.13;;;8.80;99.90;;;;;;4980304;28;20199;-70
2023/12/29 07:46:38;;;;;;;7.13;1.90;;;9.20;99.90;;;;;;4966720;28;20203;-70
2023/12/29 07:49:05;;;;;;;6.55;1.58;;;9.20;99.90;;;;;;4963496;28;20999;-70
2023/12/29 07:51:33;;;;;;;10.25;1.75;;;9.10;99.90;;;;;;4976390;28;20199;-69
2023/12/29 07:54:00;;;;;;;8.88;1.95;;;9.20;99.90;;;;;;4978183;28;20445;-69
2023/12/29 07:56:27;;;;;;;12.48;2.20;;;9.20;99.90;;;;;;4942271;28;20268;-69
2023/12/29 07:58:54;;;;;;;13.60;2.10;;;9.20;99.90;;;;;;4976626;28;20245;-69
2023/12/29 08:01:21;;;;;;;13.75;2.78;;;9.20;99.90;;;;;;4965035;28;20210;-70
2023/12/29 08:03:48;;;;;;;10.77;2.45;;;9.20;99.90;;;;;;4971282;28;20213;-69
2023/12/29 08:06:15;;;;;;;7.45;1.88;;;9.20;99.90;;;;;;4964584;28;20210;-69
2023/12/29 08:08:43;;;;;;;10.57;2.03;;;9.20;99.90;;;;;;4980424;28;20285;-70
2023/12/29 08:11:15;;;;;;;18.02;3.47;;;9.30;99.90;;;;;;4940827;28;20284;-69
2023/12/29 08:13:42;;;;;;;11.95;2.50;;;9.30;99.90;;;;;;4976136;28;20203;-69
2023/12/29 08:16:09;;;;;;;10.38;2.33;;;9.30;99.90;;;;;;4976836;28;20203;-69
2023/12/29 08:18:36;;;;;;;8.98;2.08;;;9.20;99.90;;;;;;4970285;28;20227;-70
2023/12/29 08:21:03;;;;;;;8.52;1.90;;;;;;;;;;4955526;28;20507;-69
2023/12/29 08:23:30;;;;;;;10.30;2.10;;;8.70;99.90;;;;;;4982562;28;20201;-69
2023/12/29 08:26:00;;;;;;;9.07;1.90;;;9.20;99.90;;;;;;4952340;28;20209;-70
2023/12/29 08:28:27;;;;;;;3.83;1.52;;;9.00;99.90;;;;;;4972986;28;20673;-70
2023/12/29 08:30:53;;;;;;;6.73;2.20;;;9.00;99.90;;;;;;4970095;28;20206;-69
2023/12/29 08:33:20;;;;;;;8.13;1.33;;;8.50;99.90;;;;;;4959601;28;20241;-69
2023/12/29 08:35:47;;;;;;;6.80;1.70;;;8.50;99.90;;;;;;4959008;28;20222;-69
2023/12/29 08:38:14;;;;;;;9.23;2.13;;;7.90;99.90;;;;;;4942943;28;20304;-69
2023/12/29 08:40:42;;;;;;;7.10;1.70;;;7.80;99.90;;;;;;4962951;28;20223;-70
2023/12/29 08:43:10;;;;;;;4.07;1.60;;;7.80;99.90;;;;;;4928299;28;20231;-70
2023/12/29 08:45:38;;;;;;;9.87;2.20;;;7.80;99.90;;;;;;4965462;28;20464;-70
2023/12/29 08:48:05;;;;;;;11.20;1.73;;;7.50;99.90;;;;;;4966982;28;20199;-70
2023/12/29 08:50:32;;;;;;;12.33;1.73;;;7.50;99.90;;;;;;4955956;28;20195;-70
2023/12/29 08:52:59;;;;;;;5.70;2.00;;;7.50;99.90;;;;;;4973835;28;20237;-70
2023/12/29 08:55:26;;;;;;;7.10;1.40;;;7.40;99.90;;;;;;4950973;28;20242;-70
2023/12/29 08:57:53;;;;;;;7.07;1.47;;;7.50;99.90;;;;;;4935587;28;20208;-70
2023/12/29 09:00:21;;;;;;;5.40;2.30;;;7.70;99.90;;;;;;4973672;28;20203;-69
2023/12/29 09:02:48;;;;;;;6.30;1.80;;;7.70;99.90;;;;;;4976686;28;20200;-69
2023/12/29 09:05:15;;;;;;;12.57;1.73;;;7.90;99.90;;;;;;4972431;28;20204;-69
2023/12/29 09:07:43;;;;;;;11.60;2.17;;;8.30;99.90;;;;;;4968584;28;20424;-70
2023/12/29 09:10:12;;;;;;;8.10;2.10;;;8.20;99.90;;;;;;4961425;28;20202;-70
2023/12/29 09:12:39;;;;;;;9.83;1.90;;;8.30;99.90;;;;;;4977319;28;20249;-70
2023/12/29 09:15:07;;;;;;;10.17;2.30;;;8.40;99.90;;;;;;4943192;28;20208;-70
2023/12/29 09:17:35;;;;;;;13.23;2.13;;;8.50;99.90;;;;;;4978011;28;20221;-70
2023/12/29 09:20:03;;;;;;;15.07;2.05;;;8.50;99.90;;;;;;4975098;28;20873;-69
2023/12/29 09:22:29;;;;;;;8.30;2.47;;;8.50;99.90;;;;;;4953840;28;20357;-70
2023/12/29 09:24:56;;;;;;;13.97;2.30;;;8.60;99.90;;;;;;4961129;28;20225;-70
2023/12/29 09:27:23;;;;;;;8.18;1.88;;;8.60;99.90;;;;;;4941080;28;20233;-70
2023/12/29 09:29:51;;;;;;;8.82;1.63;;;8.60;99.90;;;;;;4936952;28;20256;-70
2023/12/29 09:32:18;;;;;;;8.38;1.63;;;;;;;;;;4949283;28;20764;-69
2023/12/29 09:34:46;;;;;;;16.23;1.90;;;8.70;99.90;;;;;;4969469;28;20507;-70
2023/12/29 09:37:13;;;;;;;8.30;1.63;;;8.70;99.90;;;;;;4960406;28;20313;-70
2023/12/29 09:39:41;;;;;;;6.93;1.43;;;8.70;99.90;;;;;;4970827;28;20234;-69
2023/12/29 09:42:10;;;;;;;15.23;2.20;;;8.70;99.90;;;;;;4967029;28;20269;-70
2023/12/29 09:44:37;;;;;;;9.80;1.83;;;8.80;99.90;;;;;;4939841;28;20521;-70
2023/12/29 09:47:07;;;;;;;15.53;2.07;;;8.80;99.90;;;;;;4974150;28;20225;-70
2023/12/29 09:49:39;;;;;;;10.43;2.00;;;8.10;99.90;;;;;;4972957;28;20830;-69
2023/12/29 09:52:10;;;;;;;9.15;2.13;;;8.90;99.90;;;;;;4974298;28;20195;-70
2023/12/29 09:54:38;;;;;;;10.90;1.90;;;9.00;99.90;;;;;;4964172;28;20194;-70
2023/12/29 09:57:06;;;;;;;7.97;1.90;;;9.00;99.90;;;;;;4966202;28;20202;-70
2023/12/29 09:59:37;;;;;;;15.70;2.05;;;9.00;99.90;;;;;;4975151;28;20258;-70
2023/12/29 10:02:05;;;;;;;8.45;2.10;;;9.10;99.90;;;;;;4936567;28;20204;-70
2023/12/29 10:04:32;;;;;;;12.70;2.33;;;9.00;99.90;;;;;;4962864;28;20203;-70
2023/12/29 10:07:04;;;;;;;12.15;2.40;;;9.10;99.90;;;;;;4977762;28;20273;-69
2023/12/29 10:09:35;;;;;;;12.60;2.10;;;8.10;99.90;;;;;;4967954;28;20207;-70
2023/12/29 10:12:04;;;;;;;6.53;2.45;;;9.10;99.90;;;;;;4964503;28;21113;-70
2023/12/29 10:14:42;;;;;;;10.40;2.28;;;9.10;99.90;;;;;;4976592;28;20198;-70
2023/12/29 10:17:14;;;;;;;10.13;2.28;;;9.10;99.90;;;;;;4935472;28;20217;-70
2023/12/29 10:19:42;;;;;;;6.93;1.88;;;9.10;99.90;;;;;;4966293;28;20254;-69
2023/12/29 10:22:16;;;;;;;10.38;2.30;;;9.10;99.90;;;;;;4965766;28;20199;-70
2023/12/29 10:24:45;;;;;;;6.40;2.17;;;9.10;99.90;;;;;;4953909;28;20210;-70
2023/12/29 10:27:12;;;;;;;3.83;1.48;;;9.10;99.90;;;;;;4968700;28;20695;-70
2023/12/29 10:29:39;;;;;;;4.00;1.33;;;8.80;99.90;;;;;;4973023;28;20198;-70
2023/12/29 10:32:07;;;;;;;6.18;1.55;;;8.90;99.90;;;;;;4940681;28;20219;-69
2023/12/29 10:34:34;;;;;;;2.90;1.53;;;8.90;99.90;;;;;;4967508;28;20239;-70
2023/12/29 10:37:04;;;;;;;5.93;1.60;;;8.80;99.90;;;;;;4979399;28;20225;-70
2023/12/29 10:39:31;;;;;;;6.47;1.85;;;9.90;99.90;;;;;;4963839;28;22145;-70
2023/12/29 10:42:07;;;;;;;12.00;2.40;;;8.90;99.90;;;;;;4974969;28;20215;-70
2023/12/29 10:44:35;;;;;;;5.15;1.77;;;6.80;99.90;;;;;;4952964;28;20310;-70
2023/12/29 10:47:09;;;;;;;7.80;1.90;;;8.80;99.90;;;;;;4926712;28;22519;-72
2023/12/29 10:49:35;;;;;;;3.55;1.73;;;8.90;99.90;;;;;;4958595;28;20207;-70
2023/12/29 10:52:13;;;;;;;9.98;2.13;;;9.00;99.90;;;;;;4956171;28;20455;-69
2023/12/29 10:54:40;;;;;;;8.45;2.13;;;8.40;99.90;;;;;;4957032;28;20660;-70
2023/12/29 10:57:11;;;;;;;6.43;2.00;;;8.90;99.90;;;;;;4938059;28;20227;-70
2023/12/29 10:59:38;;;;;;;7.95;2.63;;;8.90;99.90;;;;;;4958717;28;20231;-70
2023/12/29 11:02:05;;;;;;;6.07;2.00;;;8.90;99.90;;;;;;4962120;28;20199;-70
2023/12/29 11:04:32;;;;;;;12.18;2.70;;;8.90;99.90;;;;;;4932365;28;20206;-70
2023/12/29 11:06:59;;;;;;;10.60;2.15;;;8.80;99.90;;;;;;4955347;28;20884;-70
2023/12/29 11:09:29;;;;;;;8.15;1.85;;;9.00;99.90;;;;;;4968848;28;20204;-70
2023/12/29 11:12:00;;;;;;;9.50;2.25;;;8.90;99.90;;;;;;4952103;28;20230;-70
2023/12/29 11:14:28;;;;;;;6.70;2.17;;;9.10;99.90;;;;;;4968143;28;20705;-69
2023/12/29 11:16:56;;;;;;;8.10;1.80;;;10.40;99.90;;;;;;4967030;28;20622;-69
2023/12/29 11:19:23;;;;;;;6.80;1.60;;;9.00;99.90;;;;;;4929936;28;20321;-70
2023/12/29 11:21:53;;;;;;;6.15;1.88;;;8.40;99.90;;;;;;4968459;28;20227;-70
2023/12/29 11:24:20;;;;;;;3.10;2.10;;;9.00;99.90;;;;;;4975105;28;20210;-70
2023/12/29 11:26:49;;;;;;;7.55;2.08;;;9.10;99.90;;;;;;4953256;28;20993;-69
2023/12/29 11:29:17;;;;;;;8.55;2.97;;;9.10;99.90;;;;;;4976751;28;20482;-70
2023/12/29 11:31:48;;;;;;;7.15;2.10;;;9.10;99.90;;;;;;4966908;28;20231;-69
2023/12/29 11:34:27;;;;;;;3.92;2.08;;;9.10;99.90;;;;;;4942464;28;20253;-70
2023/12/29 11:37:05;;;;;;;4.15;1.58;;;9.00;99.90;;;;;;4961768;28;20231;-69
2023/12/29 11:39:39;;;;;;;6.88;1.40;;;9.00;99.90;;;;;;4978570;28;20233;-69
2023/12/29 11:42:14;;;;;;;5.70;2.00;;;9.00;99.90;;;;;;4971007;28;20294;-70
2023/12/29 11:44:41;;;;;;;3.28;1.58;;;9.00;99.90;;;;;;4977650;28;20769;-70
2023/12/29 11:47:35;;;;;;;5.88;1.40;;;9.00;99.90;;;;;;4971992;28;20785;-70
2023/12/29 11:50:03;;;;;;;6.47;1.65;;;9.10;99.90;;;;;;4947324;28;20217;-70
2023/12/29 11:52:34;;;;;;;2.58;1.58;;;9.10;99.90;;;;;;4979481;28;20285;-69
2023/12/29 11:55:09;;;;;;;5.63;1.83;;;9.10;99.90;;;;;;4978116;28;20879;-70
2023/12/29 11:57:38;;;;;;;4.32;1.67;;;9.20;99.90;;;;;;4973613;28;20202;-70
2023/12/29 12:00:06;;;;;;;5.60;1.65;;;9.20;99.90;;;;;;4977895;28;20257;-69
2023/12/29 12:02:35;;;;;;;4.43;1.70;;;9.20;99.90;;;;;;4982632;28;20212;-69
2023/12/29 12:05:02;;;;;;;5.28;1.88;;;9.20;99.90;;;;;;4948336;28;20872;-69
2023/12/29 12:07:58;;;;;;;8.25;1.50;;;9.30;99.90;;;;;;4981340;28;20201;-70
2023/12/29 12:10:33;;;;;;;6.70;1.92;;;9.30;99.90;;;;;;4975825;28;20676;-70
2023/12/29 12:13:00;;;;;;;6.45;1.65;;;9.40;99.90;;;;;;4979027;28;20746;-70
2023/12/29 12:15:34;;;;;;;3.78;1.02;;;9.70;99.90;;;;;;4955493;28;20261;-70
2023/12/29 12:18:05;;;;;;;6.00;1.70;;;9.60;99.90;;;;;;4978632;28;20431;-70
2023/12/29 12:20:33;;;;;;;7.53;1.65;;;9.70;99.90;;;;;;4961122;28;20321;-70
2023/12/29 12:23:01;;;;;;;5.05;1.38;;;9.80;99.90;;;;;;4959629;28;20300;-70
2023/12/29 12:25:29;;;;;;;8.82;1.63;;;9.70;99.90;;;;;;4976392;28;20205;-69
2023/12/29 12:27:56;;;;;;;7.72;1.73;;;9.60;99.90;;;;;;4974165;28;20683;-69
2023/12/29 12:30:24;;;;;;;8.77;1.73;;;9.40;99.90;;;;;;4964531;28;20605;-70
2023/12/29 12:32:59;;;;;;;8.75;1.58;;;9.10;99.90;;;;;;4976933;28;20206;-70
2023/12/29 12:35:28;;;;;;;6.30;1.30;;;9.10;99.90;;;;;;4976735;28;21205;-69
2023/12/29 12:38:08;;;;;;;6.80;1.40;;;9.00;99.90;;;;;;4937716;28;21108;-70
2023/12/29 12:40:35;;;;;;;3.70;1.02;;;9.00;99.90;;;;;;4972767;28;20223;-70
2023/12/29 12:43:03;;;;;;;5.00;1.33;;;9.00;99.90;;;;;;4961028;28;20225;-69
2023/12/29 12:45:34;;;;;;;6.07;1.40;;;9.00;99.90;;;;;;4968614;28;20201;-70
2023/12/29 12:48:04;;;;;;;7.72;1.85;;;9.00;99.90;;;;;;4973294;28;20465;-70
2023/12/29 12:50:32;;;;;;;6.50;1.50;;;9.10;99.90;;;;;;4980721;28;20649;-70
2023/12/29 12:52:59;;;;;;;6.57;1.70;;;9.30;99.90;;;;;;4899814;28;20231;-70
2023/12/29 12:55:26;;;;;;;11.60;1.60;;;9.20;99.90;;;;;;4950502;28;20215;-70
2023/12/29 12:57:56;;;;;;;7.53;1.23;;;9.30;99.90;;;;;;4965030;28;20226;-70
2023/12/29 13:00:23;;;;;;;7.53;1.50;;;9.50;99.90;;;;;;4947353;28;20226;-70